logo
Search for airport 
image banner adimage banner adimage banner ad
image banner ad

MZPG - Punta Gorda Airstrip

Located in Punta Gorda, Belize

ICAO - , IATA - PND

Data provided by Airmate  

General information

Coordinates: N16°6'8" W88°48'29"
Elevation is 59 feet MSL.
 
View others Airports in Toledo District

Operational data

Special qualification required
Current time UTC:
Current local time:
Weather at : - ( 0 km )
METAR: KEKY 180108Z AUTO 17003KT 10SM FEW012 SCT024 OVC029 21/21 A2984 RMK AO2
View NOTAMs / SUP AIP / TFR affecting this airport [VIEW]
Communications frequencies: [VIEW]

Runways:

RWY identifierQFULength (ft)Width (ft)SurfaceLDA (ft)
06233626UNK
24233626UNK

Airport contact information

Address: Punta Gorda Belize

Satellite view of MZPG